createdAt,value
2017-08-16T00:00:31.259Z,3.57
2017-08-16T00:02:58.715Z,3.17
2017-08-16T00:05:26.167Z,3.20
2017-08-16T00:07:53.615Z,3.47
2017-08-16T00:10:21.051Z,2.70
2017-08-16T00:12:49.270Z,2.83
2017-08-16T00:15:16.714Z,2.97
2017-08-16T00:17:44.155Z,2.63
2017-08-16T00:20:11.591Z,2.90
2017-08-16T00:22:39.038Z,3.50
2017-08-16T00:25:06.478Z,2.93
2017-08-16T00:27:34.678Z,3.20
2017-08-16T00:30:02.156Z,2.67
2017-08-16T00:32:29.585Z,2.33
2017-08-16T00:34:57.026Z,2.77
2017-08-16T00:37:25.242Z,2.97
2017-08-16T00:39:52.682Z,2.83
2017-08-16T00:42:20.114Z,2.90
2017-08-16T00:44:48.328Z,2.87
2017-08-16T00:47:15.759Z,2.97
2017-08-16T00:49:43.203Z,3.20
2017-08-16T00:52:11.414Z,2.60
2017-08-16T00:54:38.870Z,2.90
2017-08-16T00:57:06.301Z,2.90
2017-08-16T00:59:33.767Z,2.73
2017-08-16T01:02:01.212Z,2.90
2017-08-16T01:04:28.651Z,2.57
2017-08-16T01:06:56.868Z,2.30
2017-08-16T01:09:24.296Z,2.53
2017-08-16T01:11:51.739Z,2.83
2017-08-16T01:14:19.938Z,2.93
2017-08-16T01:16:47.387Z,2.40
2017-08-16T01:19:14.831Z,2.40
2017-08-16T01:21:43.040Z,2.60
2017-08-16T01:24:10.483Z,2.27
2017-08-16T01:26:37.963Z,2.17
2017-08-16T01:29:05.411Z,2.10
2017-08-16T01:31:32.852Z,2.00
2017-08-16T01:34:00.288Z,2.40
2017-08-16T01:36:28.498Z,2.00
2017-08-16T01:38:55.927Z,2.20
2017-08-16T01:41:23.375Z,2.20
2017-08-16T01:43:50.820Z,2.40
2017-08-16T01:46:19.036Z,2.20
2017-08-16T01:48:46.475Z,2.40
2017-08-16T01:51:13.923Z,2.13
2017-08-16T01:53:41.370Z,2.17
2017-08-16T01:56:09.578Z,2.47
2017-08-16T01:58:37.015Z,2.20
2017-08-16T02:01:04.455Z,2.50
2017-08-16T02:03:32.663Z,2.57
2017-08-16T02:06:00.122Z,2.57
2017-08-16T02:08:27.558Z,2.57
2017-08-16T02:10:54.998Z,2.37
2017-08-16T02:13:23.208Z,2.30
2017-08-16T02:15:50.650Z,2.97
2017-08-16T02:18:18.092Z,2.30
2017-08-16T02:20:45.527Z,2.97
2017-08-16T02:23:13.748Z,2.57
2017-08-16T02:25:41.183Z,2.30
2017-08-16T02:28:08.623Z,2.47
2017-08-16T02:30:36.835Z,2.20
2017-08-16T02:33:04.280Z,2.47
2017-08-16T02:35:31.730Z,2.37
2017-08-16T02:37:59.171Z,2.37
2017-08-16T02:40:26.613Z,2.57
2017-08-16T02:42:54.827Z,2.30
2017-08-16T02:45:22.255Z,2.70
2017-08-16T02:47:49.694Z,2.70
2017-08-16T02:50:17.140Z,2.40
2017-08-16T02:52:44.593Z,2.40
2017-08-16T02:55:12.022Z,2.70
2017-08-16T02:57:39.467Z,2.40
2017-08-16T03:00:06.923Z,2.43
2017-08-16T03:02:34.383Z,2.67
2017-08-16T03:05:01.822Z,2.47
2017-08-16T03:07:29.271Z,2.43
2017-08-16T03:09:56.703Z,2.63
2017-08-16T03:12:24.911Z,2.53
2017-08-16T03:14:52.338Z,2.40
2017-08-16T03:17:20.556Z,2.80
2017-08-16T03:19:47.995Z,2.17
2017-08-16T03:22:15.439Z,2.50
2017-08-16T03:24:44.458Z,3.00
2017-08-16T03:27:11.907Z,2.80
2017-08-16T03:29:39.343Z,2.90
2017-08-16T03:32:06.774Z,2.47
2017-08-16T03:34:34.983Z,2.87
2017-08-16T03:37:02.427Z,3.30
2017-08-16T03:39:29.875Z,2.90
2017-08-16T03:41:58.078Z,3.00
2017-08-16T03:44:25.523Z,2.70
2017-08-16T03:46:52.959Z,2.73
2017-08-16T03:49:21.171Z,2.97
2017-08-16T03:51:48.607Z,3.10
2017-08-16T03:54:16.050Z,2.80
2017-08-16T03:56:44.254Z,3.23
2017-08-16T03:59:11.699Z,3.40
2017-08-16T04:01:39.135Z,3.27
2017-08-16T04:04:06.589Z,3.00
2017-08-16T04:06:34.797Z,2.60
2017-08-16T04:09:02.239Z,2.70
2017-08-16T04:11:29.682Z,2.93
2017-08-16T04:13:57.130Z,2.80
2017-08-16T04:16:25.333Z,3.00
2017-08-16T04:18:52.795Z,3.13
2017-08-16T04:21:20.226Z,4.10
2017-08-16T04:23:47.667Z,3.40
2017-08-16T04:26:15.876Z,3.60
2017-08-16T04:28:43.311Z,4.23
2017-08-16T04:31:10.750Z,3.60
2017-08-16T04:33:38.966Z,3.53
2017-08-16T04:36:06.436Z,4.23
2017-08-16T04:38:33.858Z,4.37
2017-08-16T04:41:01.303Z,3.80
2017-08-16T04:43:28.734Z,4.00
2017-08-16T04:45:56.179Z,3.70
2017-08-16T04:48:24.439Z,3.47
2017-08-16T04:50:51.885Z,4.10
2017-08-16T04:53:19.351Z,3.90
2017-08-16T04:55:46.796Z,3.90
2017-08-16T04:58:14.243Z,4.13
2017-08-16T05:00:41.678Z,4.03
2017-08-16T05:03:09.111Z,3.70
2017-08-16T05:05:37.335Z,3.30
2017-08-16T05:08:04.775Z,3.40
2017-08-16T05:10:32.223Z,3.43
2017-08-16T05:12:59.662Z,3.10
2017-08-16T05:15:27.875Z,2.57
2017-08-16T05:17:55.315Z,2.47
2017-08-16T05:20:22.761Z,3.17
2017-08-16T05:22:50.201Z,3.00
2017-08-16T05:25:18.403Z,3.20
2017-08-16T05:27:45.852Z,3.10
2017-08-16T05:30:13.279Z,3.30
2017-08-16T05:32:41.495Z,2.90
2017-08-16T05:35:08.927Z,3.27
2017-08-16T05:37:36.366Z,3.27
2017-08-16T05:40:04.581Z,3.40
2017-08-16T05:42:32.020Z,3.13
2017-08-16T05:44:59.450Z,3.90
2017-08-16T05:47:27.680Z,3.70
2017-08-16T05:49:55.116Z,3.90
2017-08-16T05:52:22.555Z,3.80
2017-08-16T05:54:49.995Z,3.80
2017-08-16T05:57:18.217Z,4.10
2017-08-16T05:59:45.692Z,3.60
2017-08-16T06:02:13.139Z,4.10
2017-08-16T06:04:40.584Z,4.50
2017-08-16T06:07:08.041Z,4.73
2017-08-16T06:09:35.483Z,4.97
2017-08-16T06:12:02.923Z,5.20
2017-08-16T06:14:30.358Z,5.60
2017-08-16T06:16:58.563Z,6.07
2017-08-16T06:19:26.002Z,6.20
2017-08-16T06:21:54.210Z,6.30
2017-08-16T06:24:21.672Z,5.20
2017-08-16T06:26:49.226Z,5.50
2017-08-16T06:29:16.666Z,5.30
2017-08-16T06:31:44.111Z,5.47
2017-08-16T06:34:11.550Z,5.60
2017-08-16T06:36:39.754Z,6.50
2017-08-16T06:39:07.198Z,5.93
2017-08-16T06:41:34.632Z,6.80
2017-08-16T06:44:02.853Z,6.13
2017-08-16T06:46:30.296Z,6.40
2017-08-16T06:48:57.750Z,6.20
2017-08-16T06:51:25.186Z,6.60
2017-08-16T06:53:52.627Z,6.60
2017-08-16T06:56:20.839Z,6.33
2017-08-16T06:58:48.269Z,5.73
2017-08-16T07:01:15.720Z,5.70
2017-08-16T07:03:43.924Z,6.13
2017-08-16T07:06:11.362Z,6.23
2017-08-16T07:08:38.807Z,5.30
2017-08-16T07:11:07.023Z,5.90
2017-08-16T07:13:34.466Z,5.37
2017-08-16T07:16:01.907Z,5.67
2017-08-16T07:18:29.348Z,5.30
2017-08-16T07:20:57.567Z,5.60
2017-08-16T07:23:25.015Z,5.07
2017-08-16T07:25:52.455Z,5.53
2017-08-16T07:28:19.891Z,5.87
2017-08-16T07:30:48.110Z,5.87
2017-08-16T07:33:15.539Z,6.13
2017-08-16T07:35:42.995Z,6.83
2017-08-16T07:38:10.435Z,6.67
2017-08-16T07:40:37.866Z,6.30
2017-08-16T07:43:05.310Z,5.60
2017-08-16T07:45:32.755Z,5.70
2017-08-16T07:48:00.199Z,5.87
2017-08-16T07:50:27.642Z,5.27
2017-08-16T07:52:55.086Z,5.20
2017-08-16T07:55:22.567Z,5.53
2017-08-16T07:57:50.018Z,5.53
2017-08-16T08:00:17.442Z,5.37
2017-08-16T08:02:45.652Z,5.57
2017-08-16T08:05:13.090Z,5.60
2017-08-16T08:07:40.540Z,6.33
2017-08-16T08:10:07.971Z,6.63
2017-08-16T08:12:35.415Z,5.90
2017-08-16T08:15:02.860Z,6.10
2017-08-16T08:17:30.311Z,6.13
2017-08-16T08:19:57.743Z,5.97
2017-08-16T08:22:25.185Z,6.40
2017-08-16T08:24:52.619Z,5.77
2017-08-16T08:27:20.832Z,6.10
2017-08-16T08:29:48.275Z,6.60
2017-08-16T08:32:15.711Z,5.20
2017-08-16T08:34:43.916Z,5.63
2017-08-16T08:37:11.360Z,5.23
2017-08-16T08:39:38.803Z,5.20
2017-08-16T08:42:06.247Z,4.87
2017-08-16T08:44:34.456Z,6.50
2017-08-16T08:47:01.903Z,6.03
2017-08-16T08:49:29.353Z,5.30
2017-08-16T08:51:56.791Z,6.20
2017-08-16T08:54:24.252Z,6.40
2017-08-16T08:56:51.705Z,6.73
2017-08-16T08:59:19.136Z,5.90
2017-08-16T09:01:46.591Z,6.00
2017-08-16T09:04:14.018Z,6.07
2017-08-16T09:06:41.463Z,6.30
2017-08-16T09:09:08.913Z,6.17
2017-08-16T09:11:36.348Z,6.90
2017-08-16T09:14:03.786Z,5.90
2017-08-16T09:16:31.238Z,6.27
2017-08-16T09:18:58.666Z,6.10
2017-08-16T09:21:26.115Z,5.80
2017-08-16T09:23:53.556Z,6.40
2017-08-16T09:26:21.011Z,5.97
2017-08-16T09:28:48.460Z,6.00
2017-08-16T09:31:15.898Z,5.80
2017-08-16T09:33:43.339Z,6.10
2017-08-16T09:36:11.546Z,6.40
2017-08-16T09:38:38.975Z,5.83
2017-08-16T09:41:07.191Z,5.17
2017-08-16T09:43:34.635Z,5.27
2017-08-16T09:46:02.195Z,5.67
2017-08-16T09:48:29.626Z,5.60
2017-08-16T09:50:57.062Z,5.33
2017-08-16T09:53:25.282Z,5.43
2017-08-16T09:55:52.719Z,5.43
2017-08-16T09:58:20.164Z,5.43
2017-08-16T10:00:47.615Z,5.60
2017-08-16T10:03:15.868Z,6.00
2017-08-16T10:05:43.303Z,5.80
2017-08-16T10:08:10.752Z,5.57
2017-08-16T10:10:38.196Z,4.63
2017-08-16T10:13:05.649Z,5.40
2017-08-16T10:15:33.083Z,4.73
2017-08-16T10:18:00.532Z,4.50
2017-08-16T10:20:27.971Z,4.20
2017-08-16T10:22:56.195Z,4.90
2017-08-16T10:25:23.646Z,4.87
2017-08-16T10:27:51.071Z,5.07
2017-08-16T10:30:18.519Z,4.90
2017-08-16T10:32:46.733Z,5.23
2017-08-16T10:35:14.188Z,5.60
2017-08-16T10:37:41.622Z,5.17
2017-08-16T10:40:09.067Z,5.07
2017-08-16T10:42:37.275Z,4.50
2017-08-16T10:45:04.719Z,4.37
2017-08-16T10:47:32.160Z,4.43
2017-08-16T10:50:00.370Z,5.27
2017-08-16T10:52:27.815Z,5.03
2017-08-16T10:54:55.254Z,4.97
2017-08-16T10:57:22.691Z,5.40
2017-08-16T10:59:50.160Z,5.50
2017-08-16T11:02:17.595Z,4.70
2017-08-16T11:04:45.815Z,4.73
2017-08-16T11:07:13.258Z,4.77
2017-08-16T11:09:40.705Z,5.00
2017-08-16T11:12:08.142Z,5.03
2017-08-16T11:14:36.355Z,5.00
2017-08-16T11:17:03.821Z,5.63
2017-08-16T11:19:31.263Z,5.30
2017-08-16T11:21:58.726Z,5.03
2017-08-16T11:24:26.183Z,5.33
2017-08-16T11:26:53.636Z,5.20
2017-08-16T11:29:21.101Z,5.90
2017-08-16T11:31:48.552Z,4.90
2017-08-16T11:34:16.002Z,5.07
2017-08-16T11:36:43.434Z,4.83
2017-08-16T11:39:11.649Z,4.70
2017-08-16T11:41:39.094Z,4.90
2017-08-16T11:44:06.546Z,4.57
2017-08-16T11:46:33.992Z,4.97
2017-08-16T11:49:01.428Z,4.43
2017-08-16T11:51:28.887Z,5.10
2017-08-16T11:53:56.331Z,5.10
2017-08-16T11:56:24.550Z,4.93
2017-08-16T11:58:51.991Z,4.60
2017-08-16T12:01:19.431Z,5.00
2017-08-16T12:03:46.879Z,4.70
2017-08-16T12:06:14.323Z,5.00
2017-08-16T12:08:42.539Z,4.77
2017-08-16T12:11:09.979Z,5.37
2017-08-16T12:13:37.428Z,5.00
2017-08-16T12:16:07.511Z,4.77
2017-08-16T12:18:34.942Z,4.87
2017-08-16T12:21:02.386Z,6.60
2017-08-16T12:23:29.827Z,5.40
2017-08-16T12:25:57.332Z,5.40
2017-08-16T12:28:25.072Z,4.67
2017-08-16T12:30:52.508Z,4.83
2017-08-16T12:33:19.956Z,4.90
2017-08-16T12:35:47.400Z,5.20
2017-08-16T12:38:14.854Z,5.30
2017-08-16T12:40:42.291Z,4.33
2017-08-16T12:43:10.512Z,4.73
2017-08-16T12:45:38.002Z,5.30
2017-08-16T12:48:05.509Z,4.77
2017-08-16T12:50:32.944Z,5.43
2017-08-16T12:53:01.167Z,4.77
2017-08-16T12:55:28.624Z,5.17
2017-08-16T12:57:56.054Z,4.90
2017-08-16T13:00:24.396Z,4.63
2017-08-16T13:02:51.827Z,4.90
2017-08-16T13:05:19.277Z,4.93
2017-08-16T13:07:46.718Z,4.60
2017-08-16T13:10:14.169Z,4.20
2017-08-16T13:12:41.599Z,4.87
2017-08-16T13:15:09.061Z,4.70
2017-08-16T13:17:36.496Z,4.80
2017-08-16T13:20:04.715Z,4.60
2017-08-16T13:22:32.169Z,4.97
2017-08-16T13:25:00.629Z,4.50
2017-08-16T13:27:28.736Z,4.63
2017-08-16T13:29:56.202Z,5.00
2017-08-16T13:32:23.643Z,4.53
2017-08-16T13:34:51.088Z,4.87
2017-08-16T13:37:18.531Z,4.63
2017-08-16T13:39:45.990Z,4.73
2017-08-16T13:42:13.427Z,4.90
2017-08-16T13:44:41.635Z,4.57
2017-08-16T13:47:09.091Z,5.40
2017-08-16T13:49:36.531Z,4.60
2017-08-16T13:52:03.980Z,4.93
2017-08-16T13:54:31.416Z,4.70
2017-08-16T13:56:59.632Z,4.90
2017-08-16T13:59:27.072Z,3.87
2017-08-16T14:01:54.529Z,4.50
2017-08-16T14:04:21.963Z,4.77
2017-08-16T14:06:50.175Z,4.20
2017-08-16T14:09:17.612Z,5.13
2017-08-16T14:11:45.082Z,4.40
2017-08-16T14:14:12.494Z,4.90
2017-08-16T14:16:39.942Z,5.07
2017-08-16T14:19:07.379Z,4.67
2017-08-16T14:21:34.848Z,4.67
2017-08-16T14:24:02.284Z,5.20
2017-08-16T14:26:29.723Z,4.30
2017-08-16T14:28:57.184Z,5.30
2017-08-16T14:31:24.636Z,5.43
2017-08-16T14:33:52.100Z,5.33
2017-08-16T14:36:19.532Z,5.40
2017-08-16T14:38:47.070Z,5.50
2017-08-16T14:41:15.279Z,4.60
2017-08-16T14:43:42.736Z,4.50
2017-08-16T14:46:10.187Z,4.83
2017-08-16T14:48:37.618Z,4.77
2017-08-16T14:51:05.067Z,4.70
2017-08-16T14:53:33.279Z,4.40
2017-08-16T14:56:00.728Z,5.00
2017-08-16T14:58:28.158Z,5.23
2017-08-16T15:00:55.609Z,4.60
2017-08-16T15:03:23.813Z,4.40
2017-08-16T15:05:51.256Z,4.80
2017-08-16T15:08:18.699Z,4.63
2017-08-16T15:10:46.142Z,4.73
2017-08-16T15:13:14.347Z,5.07
2017-08-16T15:15:41.794Z,4.67
2017-08-16T15:18:09.234Z,5.43
2017-08-16T15:20:37.446Z,4.60
2017-08-16T15:23:04.878Z,5.10
2017-08-16T15:25:32.323Z,8.03
2017-08-16T15:28:00.535Z,11.53
2017-08-16T15:30:27.995Z,12.10
2017-08-16T15:32:55.431Z,6.20
2017-08-16T15:35:22.872Z,6.30
2017-08-16T15:37:50.311Z,5.57
2017-08-16T15:40:18.531Z,6.70
2017-08-16T15:42:45.962Z,5.20
2017-08-16T15:45:13.412Z,5.30
2017-08-16T15:47:41.616Z,5.10
2017-08-16T15:50:09.072Z,5.30
2017-08-16T15:52:36.507Z,5.90
2017-08-16T15:55:03.952Z,5.50
2017-08-16T15:57:32.158Z,5.07
2017-08-16T15:59:59.621Z,5.60
2017-08-16T16:02:27.051Z,6.10
2017-08-16T16:04:54.492Z,6.00
2017-08-16T16:07:22.722Z,5.60
2017-08-16T16:09:50.156Z,5.77
2017-08-16T16:12:17.599Z,5.47
2017-08-16T16:14:45.274Z,5.83
2017-08-16T16:17:12.708Z,5.60
2017-08-16T16:19:40.163Z,5.13
2017-08-16T16:22:07.603Z,5.60
2017-08-16T16:24:35.816Z,5.40
2017-08-16T16:27:03.271Z,5.33
2017-08-16T16:29:30.711Z,5.63
2017-08-16T16:31:58.150Z,5.60
2017-08-16T16:34:26.362Z,5.53
2017-08-16T16:36:53.836Z,5.10
2017-08-16T16:39:21.275Z,5.10
2017-08-16T16:41:48.727Z,5.47
2017-08-16T16:44:16.170Z,5.53
2017-08-16T16:46:43.625Z,5.23
2017-08-16T16:49:11.100Z,5.10
2017-08-16T16:51:38.535Z,5.70
2017-08-16T16:54:05.971Z,5.10
2017-08-16T16:56:34.344Z,5.30
2017-08-16T16:59:02.632Z,5.20
2017-08-16T17:01:30.850Z,5.53
2017-08-16T17:03:58.291Z,4.97
2017-08-16T17:06:25.747Z,5.60
2017-08-16T17:08:53.198Z,5.00
2017-08-16T17:11:20.691Z,5.80
2017-08-16T17:13:48.131Z,5.23
2017-08-16T17:16:15.583Z,5.20
2017-08-16T17:18:43.028Z,5.37
2017-08-16T17:21:10.588Z,5.13
2017-08-16T17:23:38.023Z,5.00
2017-08-16T17:26:05.459Z,5.77
2017-08-16T17:28:33.674Z,5.27
2017-08-16T17:31:01.126Z,5.60
2017-08-16T17:33:28.599Z,5.97
2017-08-16T17:35:56.048Z,5.67
2017-08-16T17:38:23.500Z,5.73
2017-08-16T17:40:50.930Z,5.53
2017-08-16T17:43:18.378Z,5.13
2017-08-16T17:45:46.586Z,6.10
2017-08-16T17:48:14.040Z,5.90
2017-08-16T17:50:41.475Z,5.30
2017-08-16T17:53:08.922Z,6.10
2017-08-16T17:55:36.358Z,6.03
2017-08-16T17:58:03.807Z,5.53
2017-08-16T18:00:31.257Z,5.57
2017-08-16T18:02:58.707Z,5.97
2017-08-16T18:05:26.159Z,6.07
2017-08-16T18:07:53.602Z,6.00
2017-08-16T18:10:21.049Z,5.97
2017-08-16T18:12:48.495Z,5.73
2017-08-16T18:15:15.935Z,6.90
2017-08-16T18:17:43.395Z,6.10
2017-08-16T18:20:10.835Z,6.67
2017-08-16T18:22:39.043Z,5.83
2017-08-16T18:25:06.494Z,6.33
2017-08-16T18:27:33.926Z,5.47
2017-08-16T18:30:01.372Z,6.20
2017-08-16T18:32:28.809Z,5.93
2017-08-16T18:34:56.263Z,6.63
2017-08-16T18:37:23.718Z,5.80
2017-08-16T18:39:51.167Z,6.47
2017-08-16T18:42:18.607Z,6.30
2017-08-16T18:44:46.047Z,6.03
2017-08-16T18:47:13.484Z,6.63
2017-08-16T18:49:41.859Z,6.57
2017-08-16T18:52:09.300Z,6.40
2017-08-16T18:54:37.510Z,6.30
2017-08-16T18:57:04.971Z,5.83
2017-08-16T18:59:32.453Z,7.10
2017-08-16T19:01:59.891Z,7.27
2017-08-16T19:04:27.330Z,6.53
2017-08-16T19:06:54.779Z,6.70
2017-08-16T19:09:22.322Z,6.03
2017-08-16T19:11:49.771Z,5.90
2017-08-16T19:14:17.203Z,5.00
2017-08-16T19:16:44.643Z,5.67
2017-08-16T19:19:12.197Z,5.80
2017-08-16T19:21:39.632Z,5.67
2017-08-16T19:24:07.078Z,6.10
2017-08-16T19:26:34.511Z,6.10
2017-08-16T19:29:02.718Z,6.53
2017-08-16T19:31:30.160Z,6.27
2017-08-16T19:33:57.712Z,5.60
2017-08-16T19:36:25.146Z,6.53
2017-08-16T19:38:52.586Z,6.43
2017-08-16T19:41:20.815Z,5.80
2017-08-16T19:43:48.251Z,6.07
2017-08-16T19:46:15.720Z,5.30
2017-08-16T19:48:43.146Z,5.63
2017-08-16T19:51:10.587Z,5.87
2017-08-16T19:53:38.034Z,6.00
2017-08-16T19:56:05.466Z,5.60
2017-08-16T19:58:32.915Z,5.50
2017-08-16T20:01:00.358Z,5.50
2017-08-16T20:03:27.817Z,5.93
2017-08-16T20:05:55.242Z,5.90
2017-08-16T20:08:22.691Z,6.20
2017-08-16T20:10:50.890Z,5.83
2017-08-16T20:13:18.330Z,5.53
2017-08-16T20:15:45.771Z,5.27
2017-08-16T20:18:13.215Z,5.30
2017-08-16T20:20:40.657Z,5.10
2017-08-16T20:23:08.130Z,5.37
2017-08-16T20:25:35.573Z,4.70
2017-08-16T20:28:03.027Z,4.60
2017-08-16T20:30:30.474Z,4.67
2017-08-16T20:32:57.914Z,4.80
2017-08-16T20:35:25.368Z,4.07
2017-08-16T20:37:52.798Z,4.50
2017-08-16T20:40:20.292Z,4.03
2017-08-16T20:42:47.754Z,4.67
2017-08-16T20:45:15.209Z,4.60
2017-08-16T20:47:42.652Z,4.33
2017-08-16T20:50:10.111Z,5.17
2017-08-16T20:52:37.609Z,4.80
2017-08-16T20:55:05.839Z,4.60
2017-08-16T20:57:33.271Z,5.47
2017-08-16T21:00:00.734Z,5.20
2017-08-16T21:02:28.179Z,5.17
2017-08-16T21:04:55.614Z,4.90
2017-08-16T21:07:23.822Z,5.17
2017-08-16T21:09:51.263Z,4.40
2017-08-16T21:12:18.716Z,5.13
2017-08-16T21:14:46.924Z,5.03
2017-08-16T21:17:14.379Z,5.70
2017-08-16T21:19:41.811Z,5.47
2017-08-16T21:22:09.263Z,5.07
2017-08-16T21:24:36.694Z,4.73
2017-08-16T21:27:04.139Z,4.93
2017-08-16T21:29:31.583Z,4.60
2017-08-16T21:31:59.028Z,4.47
2017-08-16T21:34:26.485Z,4.93
2017-08-16T21:36:53.922Z,4.40
2017-08-16T21:39:21.363Z,4.30
2017-08-16T21:41:48.819Z,4.73
2017-08-16T21:44:16.258Z,4.43
2017-08-16T21:46:44.468Z,3.97
2017-08-16T21:49:11.903Z,3.90
2017-08-16T21:51:39.343Z,4.10
2017-08-16T21:54:07.555Z,3.87
2017-08-16T21:56:35.019Z,3.60
2017-08-16T21:59:02.467Z,4.03
2017-08-16T22:01:29.927Z,4.10
2017-08-16T22:03:57.374Z,3.40
2017-08-16T22:06:24.813Z,3.80
2017-08-16T22:08:52.260Z,4.17
2017-08-16T22:11:20.467Z,4.10
2017-08-16T22:13:47.924Z,3.33
2017-08-16T22:16:15.356Z,3.50
2017-08-16T22:18:42.800Z,3.67
2017-08-16T22:21:11.006Z,3.63
2017-08-16T22:23:38.451Z,3.80
2017-08-16T22:26:05.892Z,3.33
2017-08-16T22:28:33.327Z,3.60
2017-08-16T22:31:01.527Z,3.47
2017-08-16T22:33:28.973Z,3.70
2017-08-16T22:35:57.179Z,3.57
2017-08-16T22:38:24.634Z,3.77
2017-08-16T22:40:52.062Z,4.10
2017-08-16T22:43:19.511Z,3.90
2017-08-16T22:45:47.723Z,4.10
2017-08-16T22:48:15.182Z,3.70
2017-08-16T22:50:42.632Z,3.73
2017-08-16T22:53:10.062Z,4.03
2017-08-16T22:55:37.494Z,3.40
2017-08-16T22:58:05.720Z,3.53
2017-08-16T23:00:33.156Z,3.47
2017-08-16T23:03:00.630Z,3.80
2017-08-16T23:05:28.082Z,3.70
2017-08-16T23:07:55.506Z,3.60
2017-08-16T23:10:23.718Z,3.27
2017-08-16T23:12:51.155Z,3.20
2017-08-16T23:15:18.595Z,3.90
2017-08-16T23:17:46.038Z,3.40
2017-08-16T23:20:14.253Z,3.53
2017-08-16T23:22:41.673Z,3.40
2017-08-16T23:25:09.890Z,3.20
2017-08-16T23:27:37.351Z,3.40
2017-08-16T23:30:04.804Z,3.30
2017-08-16T23:32:32.252Z,3.10
2017-08-16T23:34:59.686Z,3.50
2017-08-16T23:37:27.124Z,3.20
2017-08-16T23:39:55.326Z,3.30
2017-08-16T23:42:22.762Z,3.30
2017-08-16T23:44:50.972Z,3.10
2017-08-16T23:47:18.417Z,3.30
2017-08-16T23:49:45.885Z,3.80
2017-08-16T23:52:13.316Z,4.40
2017-08-16T23:54:40.763Z,4.77
2017-08-16T23:57:08.971Z,4.80
2017-08-16T23:59:36.411Z,4.30
